Terminal Aerodrome Forecast
Issued by NWS Wilmington, OH

Home | Current Version | Previous Version | Text Only | Print | Product List | Glossary On
Versions: 1 2 3 4 5 6 7 8 9 10 11 12 13 14 15 16 17 18 19 20 21 22 23 24 25 26 27
000
FTUS41 KILN 211700
TAFCVG
TAF
KCVG 211736Z 2118/2224 12006KT P6SM SCT015 SCT250
      TEMPO 2209/2212 BKN025
     FM221200 13007KT P6SM BKN020
     FM222000 14009KT P6SM SCT025 BKN150=

USA.gov is the U.S. government's official web portal to all federal, state and local government web resources and services.